sensor_id;sensor_type;location;lat;lon;timestamp;P1;durP1;ratioP1;P2;durP2;ratioP2
13439;SDS011;6792;57.698;11.946;2022-09-01T00:02:17;2.95;;;1.07;;
13439;SDS011;6792;57.698;11.946;2022-09-01T00:04:46;1.55;;;1.00;;
13439;SDS011;6792;57.698;11.946;2022-09-01T00:07:15;1.87;;;1.22;;
13439;SDS011;6792;57.698;11.946;2022-09-01T00:09:44;1.67;;;1.10;;
13439;SDS011;6792;57.698;11.946;2022-09-01T00:12:16;2.95;;;1.10;;
13439;SDS011;6792;57.698;11.946;2022-09-01T00:14:47;1.92;;;1.10;;
13439;SDS011;6792;57.698;11.946;2022-09-01T00:17:16;4.42;;;1.35;;
13439;SDS011;6792;57.698;11.946;2022-09-01T00:19:45;1.52;;;1.05;;
13439;SDS011;6792;57.698;11.946;2022-09-01T00:22:14;1.72;;;1.20;;
13439;SDS011;6792;57.698;11.946;2022-09-01T00:24:43;4.33;;;1.30;;
13439;SDS011;6792;57.698;11.946;2022-09-01T00:27:12;1.17;;;1.00;;
13439;SDS011;6792;57.698;11.946;2022-09-01T00:29:41;1.20;;;0.90;;
13439;SDS011;6792;57.698;11.946;2022-09-01T00:32:10;1.98;;;1.30;;
13439;SDS011;6792;57.698;11.946;2022-09-01T00:34:39;2.02;;;1.82;;
13439;SDS011;6792;57.698;11.946;2022-09-01T00:37:08;2.75;;;1.42;;
13439;SDS011;6792;57.698;11.946;2022-09-01T00:39:37;1.45;;;1.20;;
13439;SDS011;6792;57.698;11.946;2022-09-01T00:42:06;3.27;;;1.10;;
13439;SDS011;6792;57.698;11.946;2022-09-01T00:44:35;2.25;;;1.35;;
13439;SDS011;6792;57.698;11.946;2022-09-01T00:47:04;2.35;;;1.22;;
13439;SDS011;6792;57.698;11.946;2022-09-01T00:49:34;1.12;;;1.02;;
13439;SDS011;6792;57.698;11.946;2022-09-01T00:52:07;3.33;;;1.22;;
13439;SDS011;6792;57.698;11.946;2022-09-01T00:54:37;2.35;;;1.27;;
13439;SDS011;6792;57.698;11.946;2022-09-01T00:57:09;1.85;;;1.50;;
13439;SDS011;6792;57.698;11.946;2022-09-01T00:59:41;1.80;;;1.20;;
13439;SDS011;6792;57.698;11.946;2022-09-01T01:02:11;2.33;;;1.30;;
13439;SDS011;6792;57.698;11.946;2022-09-01T01:04:41;1.50;;;1.00;;
13439;SDS011;6792;57.698;11.946;2022-09-01T01:07:11;1.35;;;1.12;;
13439;SDS011;6792;57.698;11.946;2022-09-01T01:09:41;2.58;;;1.17;;
13439;SDS011;6792;57.698;11.946;2022-09-01T01:12:12;1.60;;;1.32;;
13439;SDS011;6792;57.698;11.946;2022-09-01T01:14:42;1.60;;;1.30;;
13439;SDS011;6792;57.698;11.946;2022-09-01T01:17:14;2.95;;;1.50;;
13439;SDS011;6792;57.698;11.946;2022-09-01T01:19:44;1.60;;;1.20;;
13439;SDS011;6792;57.698;11.946;2022-09-01T01:22:35;4.80;;;1.40;;
13439;SDS011;6792;57.698;11.946;2022-09-01T01:25:25;2.33;;;1.30;;
13439;SDS011;6792;57.698;11.946;2022-09-01T01:28:03;2.90;;;1.30;;
13439;SDS011;6792;57.698;11.946;2022-09-01T01:30:35;3.92;;;1.62;;
13439;SDS011;6792;57.698;11.946;2022-09-01T01:33:07;2.98;;;1.55;;
13439;SDS011;6792;57.698;11.946;2022-09-01T01:35:36;3.25;;;1.40;;
13439;SDS011;6792;57.698;11.946;2022-09-01T01:38:07;2.87;;;2.08;;
13439;SDS011;6792;57.698;11.946;2022-09-01T01:40:36;2.58;;;1.85;;
13439;SDS011;6792;57.698;11.946;2022-09-01T01:43:07;3.72;;;1.62;;
13439;SDS011;6792;57.698;11.946;2022-09-01T01:45:39;6.22;;;2.37;;
13439;SDS011;6792;57.698;11.946;2022-09-01T01:48:08;3.65;;;1.95;;
13439;SDS011;6792;57.698;11.946;2022-09-01T01:50:37;3.33;;;2.17;;
13439;SDS011;6792;57.698;11.946;2022-09-01T01:53:08;3.75;;;1.90;;
13439;SDS011;6792;57.698;11.946;2022-09-01T01:55:39;4.60;;;2.30;;
13439;SDS011;6792;57.698;11.946;2022-09-01T01:58:09;3.62;;;1.90;;
13439;SDS011;6792;57.698;11.946;2022-09-01T02:00:39;3.77;;;1.72;;
13439;SDS011;6792;57.698;11.946;2022-09-01T02:03:11;4.12;;;1.98;;
13439;SDS011;6792;57.698;11.946;2022-09-01T02:05:44;2.90;;;1.67;;
13439;SDS011;6792;57.698;11.946;2022-09-01T02:08:15;2.45;;;1.50;;
13439;SDS011;6792;57.698;11.946;2022-09-01T02:10:47;3.70;;;1.55;;
13439;SDS011;6792;57.698;11.946;2022-09-01T02:13:19;3.22;;;1.32;;
13439;SDS011;6792;57.698;11.946;2022-09-01T02:15:51;2.55;;;1.70;;
13439;SDS011;6792;57.698;11.946;2022-09-01T02:18:22;2.52;;;1.50;;
13439;SDS011;6792;57.698;11.946;2022-09-01T02:20:56;2.83;;;1.63;;
13439;SDS011;6792;57.698;11.946;2022-09-01T02:23:26;2.40;;;1.32;;
13439;SDS011;6792;57.698;11.946;2022-09-01T02:25:58;2.37;;;1.40;;
13439;SDS011;6792;57.698;11.946;2022-09-01T02:28:29;2.13;;;1.20;;
13439;SDS011;6792;57.698;11.946;2022-09-01T02:31:00;4.05;;;1.45;;
13439;SDS011;6792;57.698;11.946;2022-09-01T02:33:30;2.65;;;1.32;;
13439;SDS011;6792;57.698;11.946;2022-09-01T02:36:00;1.20;;;1.10;;
13439;SDS011;6792;57.698;11.946;2022-09-01T02:38:31;3.70;;;1.47;;
13439;SDS011;6792;57.698;11.946;2022-09-01T02:41:01;4.17;;;1.37;;
13439;SDS011;6792;57.698;11.946;2022-09-01T02:43:30;3.27;;;1.60;;
13439;SDS011;6792;57.698;11.946;2022-09-01T02:45:59;1.57;;;1.37;;
13439;SDS011;6792;57.698;11.946;2022-09-01T02:48:30;1.65;;;1.27;;
13439;SDS011;6792;57.698;11.946;2022-09-01T02:51:03;2.00;;;1.40;;
13439;SDS011;6792;57.698;11.946;2022-09-01T02:53:34;5.30;;;1.47;;
13439;SDS011;6792;57.698;11.946;2022-09-01T02:56:05;3.33;;;1.40;;
13439;SDS011;6792;57.698;11.946;2022-09-01T02:58:37;1.42;;;1.10;;
13439;SDS011;6792;57.698;11.946;2022-09-01T03:01:10;3.20;;;1.05;;
13439;SDS011;6792;57.698;11.946;2022-09-01T03:03:42;2.00;;;1.32;;
13439;SDS011;6792;57.698;11.946;2022-09-01T03:06:11;1.52;;;1.17;;
13439;SDS011;6792;57.698;11.946;2022-09-01T03:08:40;2.02;;;1.10;;
13439;SDS011;6792;57.698;11.946;2022-09-01T03:11:09;1.40;;;1.00;;
13439;SDS011;6792;57.698;11.946;2022-09-01T03:13:38;2.35;;;1.20;;
13439;SDS011;6792;57.698;11.946;2022-09-01T03:16:08;1.65;;;1.20;;
13439;SDS011;6792;57.698;11.946;2022-09-01T03:18:38;2.40;;;1.02;;
13439;SDS011;6792;57.698;11.946;2022-09-01T03:21:08;1.40;;;1.27;;
13439;SDS011;6792;57.698;11.946;2022-09-01T03:23:40;1.85;;;1.30;;
13439;SDS011;6792;57.698;11.946;2022-09-01T03:26:09;3.05;;;1.10;;
13439;SDS011;6792;57.698;11.946;2022-09-01T03:28:39;1.80;;;1.10;;
13439;SDS011;6792;57.698;11.946;2022-09-01T03:31:08;4.62;;;1.55;;
13439;SDS011;6792;57.698;11.946;2022-09-01T03:33:37;4.60;;;1.17;;
13439;SDS011;6792;57.698;11.946;2022-09-01T03:36:07;3.95;;;0.90;;
13439;SDS011;6792;57.698;11.946;2022-09-01T03:38:38;2.08;;;1.07;;
13439;SDS011;6792;57.698;11.946;2022-09-01T03:41:08;10.72;;;2.00;;
13439;SDS011;6792;57.698;11.946;2022-09-01T03:43:38;1.77;;;1.40;;
13439;SDS011;6792;57.698;11.946;2022-09-01T03:46:07;5.62;;;1.22;;
13439;SDS011;6792;57.698;11.946;2022-09-01T03:48:38;1.80;;;1.13;;
13439;SDS011;6792;57.698;11.946;2022-09-01T03:51:08;2.17;;;1.40;;
13439;SDS011;6792;57.698;11.946;2022-09-01T03:53:38;2.33;;;1.12;;
13439;SDS011;6792;57.698;11.946;2022-09-01T03:56:07;2.60;;;1.27;;
13439;SDS011;6792;57.698;11.946;2022-09-01T03:58:36;3.42;;;1.20;;
13439;SDS011;6792;57.698;11.946;2022-09-01T04:01:07;2.55;;;1.20;;
13439;SDS011;6792;57.698;11.946;2022-09-01T04:03:38;3.33;;;1.37;;
13439;SDS011;6792;57.698;11.946;2022-09-01T04:06:09;4.37;;;1.20;;
13439;SDS011;6792;57.698;11.946;2022-09-01T04:08:38;3.80;;;1.50;;
13439;SDS011;6792;57.698;11.946;2022-09-01T04:11:11;3.70;;;1.40;;
13439;SDS011;6792;57.698;11.946;2022-09-01T04:13:44;3.30;;;1.22;;
13439;SDS011;6792;57.698;11.946;2022-09-01T04:16:16;2.62;;;1.20;;
13439;SDS011;6792;57.698;11.946;2022-09-01T04:19:05;1.93;;;1.03;;
13439;SDS011;6792;57.698;11.946;2022-09-01T04:21:43;1.50;;;1.07;;
13439;SDS011;6792;57.698;11.946;2022-09-01T04:24:12;3.37;;;1.17;;
13439;SDS011;6792;57.698;11.946;2022-09-01T04:26:44;3.27;;;1.00;;
13439;SDS011;6792;57.698;11.946;2022-09-01T04:29:15;8.87;;;1.70;;
13439;SDS011;6792;57.698;11.946;2022-09-01T04:31:44;2.63;;;1.33;;
13439;SDS011;6792;57.698;11.946;2022-09-01T04:34:16;3.20;;;1.27;;
13439;SDS011;6792;57.698;11.946;2022-09-01T04:36:45;7.80;;;1.37;;
13439;SDS011;6792;57.698;11.946;2022-09-01T04:39:16;3.45;;;1.47;;
13439;SDS011;6792;57.698;11.946;2022-09-01T04:41:45;3.33;;;1.15;;
13439;SDS011;6792;57.698;11.946;2022-09-01T04:44:16;2.35;;;1.20;;
13439;SDS011;6792;57.698;11.946;2022-09-01T04:46:45;2.73;;;1.30;;
13439;SDS011;6792;57.698;11.946;2022-09-01T04:49:16;1.22;;;1.10;;
13439;SDS011;6792;57.698;11.946;2022-09-01T04:51:49;5.42;;;1.47;;
13439;SDS011;6792;57.698;11.946;2022-09-01T04:54:19;4.30;;;1.50;;
13439;SDS011;6792;57.698;11.946;2022-09-01T04:56:49;3.03;;;1.10;;
13439;SDS011;6792;57.698;11.946;2022-09-01T04:59:20;1.77;;;1.27;;
13439;SDS011;6792;57.698;11.946;2022-09-01T05:01:52;5.60;;;1.47;;
13439;SDS011;6792;57.698;11.946;2022-09-01T05:04:24;3.92;;;1.20;;
13439;SDS011;6792;57.698;11.946;2022-09-01T05:06:54;4.30;;;1.30;;
13439;SDS011;6792;57.698;11.946;2022-09-01T05:09:26;7.28;;;1.47;;
13439;SDS011;6792;57.698;11.946;2022-09-01T05:11:56;4.53;;;1.37;;
13439;SDS011;6792;57.698;11.946;2022-09-01T05:14:29;2.58;;;1.50;;
13439;SDS011;6792;57.698;11.946;2022-09-01T05:16:59;5.37;;;1.67;;
13439;SDS011;6792;57.698;11.946;2022-09-01T05:19:29;2.33;;;1.40;;
13439;SDS011;6792;57.698;11.946;2022-09-01T05:21:59;7.03;;;1.72;;
13439;SDS011;6792;57.698;11.946;2022-09-01T05:24:30;3.05;;;1.80;;
13439;SDS011;6792;57.698;11.946;2022-09-01T05:27:00;4.03;;;1.80;;
13439;SDS011;6792;57.698;11.946;2022-09-01T05:29:31;7.30;;;1.47;;
13439;SDS011;6792;57.698;11.946;2022-09-01T05:32:02;8.50;;;2.25;;
13439;SDS011;6792;57.698;11.946;2022-09-01T05:34:35;6.72;;;2.22;;
13439;SDS011;6792;57.698;11.946;2022-09-01T05:37:05;12.07;;;2.67;;
13439;SDS011;6792;57.698;11.946;2022-09-01T05:39:36;6.95;;;2.05;;
13439;SDS011;6792;57.698;11.946;2022-09-01T05:42:05;3.95;;;2.25;;
13439;SDS011;6792;57.698;11.946;2022-09-01T05:44:35;13.20;;;2.37;;
13439;SDS011;6792;57.698;11.946;2022-09-01T05:47:07;10.72;;;2.25;;
13439;SDS011;6792;57.698;11.946;2022-09-01T05:49:37;5.10;;;1.90;;
13439;SDS011;6792;57.698;11.946;2022-09-01T05:52:06;7.00;;;2.30;;
13439;SDS011;6792;57.698;11.946;2022-09-01T05:54:35;5.47;;;1.67;;
13439;SDS011;6792;57.698;11.946;2022-09-01T05:57:06;6.55;;;2.30;;
13439;SDS011;6792;57.698;11.946;2022-09-01T05:59:36;11.43;;;1.90;;
13439;SDS011;6792;57.698;11.946;2022-09-01T06:02:07;9.30;;;2.33;;
13439;SDS011;6792;57.698;11.946;2022-09-01T06:04:37;3.47;;;2.07;;
13439;SDS011;6792;57.698;11.946;2022-09-01T06:07:07;8.70;;;2.20;;
13439;SDS011;6792;57.698;11.946;2022-09-01T06:09:40;12.43;;;2.55;;
13439;SDS011;6792;57.698;11.946;2022-09-01T06:12:10;10.43;;;2.23;;
13439;SDS011;6792;57.698;11.946;2022-09-01T06:14:43;12.82;;;2.45;;
13439;SDS011;6792;57.698;11.946;2022-09-01T06:17:12;13.13;;;2.80;;
13439;SDS011;6792;57.698;11.946;2022-09-01T06:19:43;3.42;;;2.42;;
13439;SDS011;6792;57.698;11.946;2022-09-01T06:22:13;11.05;;;2.37;;
13439;SDS011;6792;57.698;11.946;2022-09-01T06:24:42;7.87;;;2.08;;
13439;SDS011;6792;57.698;11.946;2022-09-01T06:27:11;5.97;;;2.20;;
13439;SDS011;6792;57.698;11.946;2022-09-01T06:29:42;5.37;;;1.92;;
13439;SDS011;6792;57.698;11.946;2022-09-01T06:32:13;8.05;;;2.37;;
13439;SDS011;6792;57.698;11.946;2022-09-01T06:34:42;6.90;;;1.90;;
13439;SDS011;6792;57.698;11.946;2022-09-01T06:37:12;4.37;;;1.55;;
13439;SDS011;6792;57.698;11.946;2022-09-01T06:39:42;12.55;;;1.98;;
13439;SDS011;6792;57.698;11.946;2022-09-01T06:42:12;6.30;;;2.60;;
13439;SDS011;6792;57.698;11.946;2022-09-01T06:44:41;16.55;;;2.90;;
13439;SDS011;6792;57.698;11.946;2022-09-01T06:47:11;7.97;;;2.20;;
13439;SDS011;6792;57.698;11.946;2022-09-01T06:49:41;2.65;;;1.85;;
13439;SDS011;6792;57.698;11.946;2022-09-01T06:52:10;7.58;;;2.00;;
13439;SDS011;6792;57.698;11.946;2022-09-01T06:54:41;5.28;;;2.25;;
13439;SDS011;6792;57.698;11.946;2022-09-01T06:57:10;3.92;;;2.00;;
13439;SDS011;6792;57.698;11.946;2022-09-01T06:59:39;4.65;;;2.30;;
13439;SDS011;6792;57.698;11.946;2022-09-01T07:02:08;4.42;;;1.90;;
13439;SDS011;6792;57.698;11.946;2022-09-01T07:04:38;3.33;;;1.70;;
13439;SDS011;6792;57.698;11.946;2022-09-01T07:07:08;4.15;;;1.52;;
13439;SDS011;6792;57.698;11.946;2022-09-01T07:09:38;2.37;;;1.62;;
13439;SDS011;6792;57.698;11.946;2022-09-01T07:12:07;3.80;;;1.40;;
13439;SDS011;6792;57.698;11.946;2022-09-01T07:14:36;2.77;;;1.52;;
13439;SDS011;6792;57.698;11.946;2022-09-01T07:17:06;3.45;;;1.27;;
13439;SDS011;6792;57.698;11.946;2022-09-01T07:19:36;1.27;;;1.07;;
13439;SDS011;6792;57.698;11.946;2022-09-01T07:22:05;4.00;;;1.37;;
13439;SDS011;6792;57.698;11.946;2022-09-01T07:24:34;1.10;;;0.90;;
13439;SDS011;6792;57.698;11.946;2022-09-01T07:27:05;2.62;;;1.17;;
13439;SDS011;6792;57.698;11.946;2022-09-01T07:29:34;2.95;;;1.20;;
13439;SDS011;6792;57.698;11.946;2022-09-01T07:32:04;2.25;;;1.30;;
13439;SDS011;6792;57.698;11.946;2022-09-01T07:34:35;3.10;;;1.30;;
13439;SDS011;6792;57.698;11.946;2022-09-01T07:37:15;5.58;;;1.20;;
13439;SDS011;6792;57.698;11.946;2022-09-01T07:39:45;3.50;;;1.25;;
13439;SDS011;6792;57.698;11.946;2022-09-01T07:42:16;1.92;;;1.00;;
13439;SDS011;6792;57.698;11.946;2022-09-01T07:44:45;0.98;;;0.88;;
13439;SDS011;6792;57.698;11.946;2022-09-01T07:47:15;1.85;;;0.80;;
13439;SDS011;6792;57.698;11.946;2022-09-01T07:49:44;2.05;;;0.62;;
13439;SDS011;6792;57.698;11.946;2022-09-01T07:52:13;2.70;;;0.70;;
13439;SDS011;6792;57.698;11.946;2022-09-01T07:54:44;1.35;;;0.82;;
13439;SDS011;6792;57.698;11.946;2022-09-01T07:57:13;1.15;;;0.70;;
13439;SDS011;6792;57.698;11.946;2022-09-01T07:59:42;0.72;;;0.72;;
13439;SDS011;6792;57.698;11.946;2022-09-01T08:02:11;2.00;;;0.75;;
13439;SDS011;6792;57.698;11.946;2022-09-01T08:04:40;1.47;;;0.60;;
13439;SDS011;6792;57.698;11.946;2022-09-01T08:07:09;3.95;;;1.22;;
13439;SDS011;6792;57.698;11.946;2022-09-01T08:09:39;0.85;;;0.70;;
13439;SDS011;6792;57.698;11.946;2022-09-01T08:12:08;2.90;;;0.80;;
13439;SDS011;6792;57.698;11.946;2022-09-01T08:14:37;0.95;;;0.70;;
13439;SDS011;6792;57.698;11.946;2022-09-01T08:17:06;0.60;;;0.53;;
13439;SDS011;6792;57.698;11.946;2022-09-01T08:19:35;2.15;;;0.80;;
13439;SDS011;6792;57.698;11.946;2022-09-01T08:22:04;0.82;;;0.80;;
13439;SDS011;6792;57.698;11.946;2022-09-01T08:24:33;1.05;;;0.68;;
13439;SDS011;6792;57.698;11.946;2022-09-01T08:27:02;1.55;;;0.70;;
13439;SDS011;6792;57.698;11.946;2022-09-01T08:29:31;4.33;;;1.12;;
13439;SDS011;6792;57.698;11.946;2022-09-01T08:32:01;2.58;;;0.78;;
13439;SDS011;6792;57.698;11.946;2022-09-01T08:34:31;0.75;;;0.75;;
13439;SDS011;6792;57.698;11.946;2022-09-01T08:37:03;0.60;;;0.60;;
13439;SDS011;6792;57.698;11.946;2022-09-01T08:39:32;3.80;;;0.50;;
13439;SDS011;6792;57.698;11.946;2022-09-01T08:42:03;2.72;;;0.70;;
13439;SDS011;6792;57.698;11.946;2022-09-01T08:44:36;1.92;;;0.60;;
13439;SDS011;6792;57.698;11.946;2022-09-01T08:47:09;0.65;;;0.47;;
13439;SDS011;6792;57.698;11.946;2022-09-01T08:49:40;0.53;;;0.42;;
13439;SDS011;6792;57.698;11.946;2022-09-01T08:52:14;0.88;;;0.50;;
13439;SDS011;6792;57.698;11.946;2022-09-01T08:54:47;0.60;;;0.57;;
13439;SDS011;6792;57.698;11.946;2022-09-01T08:57:20;1.02;;;0.50;;
13439;SDS011;6792;57.698;11.946;2022-09-01T08:59:51;0.40;;;0.40;;
13439;SDS011;6792;57.698;11.946;2022-09-01T09:02:26;3.45;;;0.68;;
13439;SDS011;6792;57.698;11.946;2022-09-01T09:05:01;1.60;;;0.60;;
13439;SDS011;6792;57.698;11.946;2022-09-01T09:07:40;0.50;;;0.50;;
13439;SDS011;6792;57.698;11.946;2022-09-01T09:10:15;3.65;;;0.70;;
13439;SDS011;6792;57.698;11.946;2022-09-01T09:12:50;2.98;;;0.45;;
13439;SDS011;6792;57.698;11.946;2022-09-01T09:15:25;0.55;;;0.53;;
13439;SDS011;6792;57.698;11.946;2022-09-01T09:17:58;0.62;;;0.57;;
13439;SDS011;6792;57.698;11.946;2022-09-01T09:20:29;2.70;;;0.80;;
13439;SDS011;6792;57.698;11.946;2022-09-01T09:22:58;1.42;;;0.78;;
13439;SDS011;6792;57.698;11.946;2022-09-01T09:25:30;0.90;;;0.50;;
13439;SDS011;6792;57.698;11.946;2022-09-01T09:27:59;0.55;;;0.55;;
13439;SDS011;6792;57.698;11.946;2022-09-01T09:30:29;1.15;;;0.65;;
13439;SDS011;6792;57.698;11.946;2022-09-01T09:32:59;0.60;;;0.60;;
13439;SDS011;6792;57.698;11.946;2022-09-01T09:35:30;3.75;;;0.45;;
13439;SDS011;6792;57.698;11.946;2022-09-01T09:38:15;1.07;;;0.60;;
13439;SDS011;6792;57.698;11.946;2022-09-01T09:40:55;3.25;;;0.70;;
13439;SDS011;6792;57.698;11.946;2022-09-01T09:43:26;0.70;;;0.53;;
13439;SDS011;6792;57.698;11.946;2022-09-01T09:48:54;0.45;;;0.40;;
13439;SDS011;6792;57.698;11.946;2022-09-01T09:51:35;2.22;;;0.78;;
13439;SDS011;6792;57.698;11.946;2022-09-01T09:54:12;0.82;;;0.68;;
13439;SDS011;6792;57.698;11.946;2022-09-01T09:56:47;1.15;;;0.60;;
13439;SDS011;6792;57.698;11.946;2022-09-01T09:59:23;1.05;;;0.55;;
13439;SDS011;6792;57.698;11.946;2022-09-01T10:01:56;0.82;;;0.60;;
13439;SDS011;6792;57.698;11.946;2022-09-01T10:04:33;2.70;;;0.70;;
13439;SDS011;6792;57.698;11.946;2022-09-01T10:09:52;2.00;;;0.50;;
13439;SDS011;6792;57.698;11.946;2022-09-01T10:12:22;0.62;;;0.62;;
13439;SDS011;6792;57.698;11.946;2022-09-01T10:14:53;0.95;;;0.62;;
13439;SDS011;6792;57.698;11.946;2022-09-01T10:17:27;1.95;;;0.60;;
13439;SDS011;6792;57.698;11.946;2022-09-01T10:19:58;0.50;;;0.50;;
13439;SDS011;6792;57.698;11.946;2022-09-01T10:22:31;2.80;;;0.80;;
13439;SDS011;6792;57.698;11.946;2022-09-01T10:25:01;1.37;;;0.68;;
13439;SDS011;6792;57.698;11.946;2022-09-01T10:27:31;1.30;;;0.85;;
13439;SDS011;6792;57.698;11.946;2022-09-01T10:30:04;0.93;;;0.40;;
13439;SDS011;6792;57.698;11.946;2022-09-01T10:32:37;11.40;;;1.60;;
13439;SDS011;6792;57.698;11.946;2022-09-01T10:35:09;1.37;;;0.50;;
13439;SDS011;6792;57.698;11.946;2022-09-01T10:37:41;1.92;;;0.60;;
13439;SDS011;6792;57.698;11.946;2022-09-01T10:55:21;1.10;;;0.55;;
13439;SDS011;6792;57.698;11.946;2022-09-01T10:57:59;0.45;;;0.45;;
13439;SDS011;6792;57.698;11.946;2022-09-01T11:00:46;3.00;;;0.40;;
13439;SDS011;6792;57.698;11.946;2022-09-01T11:09:36;0.93;;;0.45;;
13439;SDS011;6792;57.698;11.946;2022-09-01T11:15:32;0.60;;;0.40;;
13439;SDS011;6792;57.698;11.946;2022-09-01T11:18:07;3.20;;;0.47;;
13439;SDS011;6792;57.698;11.946;2022-09-01T11:20:39;1.30;;;0.42;;
13439;SDS011;6792;57.698;11.946;2022-09-01T11:23:12;1.07;;;0.47;;
13439;SDS011;6792;57.698;11.946;2022-09-01T11:25:49;2.27;;;0.60;;
13439;SDS011;6792;57.698;11.946;2022-09-01T11:31:22;0.50;;;0.47;;
13439;SDS011;6792;57.698;11.946;2022-09-01T11:34:16;0.55;;;0.55;;
13439;SDS011;6792;57.698;11.946;2022-09-01T11:36:53;0.75;;;0.57;;
13439;SDS011;6792;57.698;11.946;2022-09-01T11:39:36;1.80;;;0.70;;
13439;SDS011;6792;57.698;11.946;2022-09-01T11:42:15;0.40;;;0.40;;
13439;SDS011;6792;57.698;11.946;2022-09-01T11:44:48;1.47;;;0.60;;
13439;SDS011;6792;57.698;11.946;2022-09-01T11:47:22;1.07;;;0.50;;
13439;SDS011;6792;57.698;11.946;2022-09-01T11:49:53;4.37;;;0.50;;
13439;SDS011;6792;57.698;11.946;2022-09-01T11:52:25;1.20;;;0.60;;
13439;SDS011;6792;57.698;11.946;2022-09-01T11:54:56;2.33;;;0.60;;
13439;SDS011;6792;57.698;11.946;2022-09-01T11:57:30;1.87;;;0.65;;
13439;SDS011;6792;57.698;11.946;2022-09-01T12:00:00;3.40;;;0.62;;
13439;SDS011;6792;57.698;11.946;2022-09-01T12:02:33;0.82;;;0.60;;
13439;SDS011;6792;57.698;11.946;2022-09-01T12:05:08;2.47;;;0.47;;
13439;SDS011;6792;57.698;11.946;2022-09-01T12:07:39;0.55;;;0.55;;
13439;SDS011;6792;57.698;11.946;2022-09-01T12:10:13;0.40;;;0.40;;
13439;SDS011;6792;57.698;11.946;2022-09-01T12:12:47;5.67;;;0.75;;
13439;SDS011;6792;57.698;11.946;2022-09-01T12:15:17;0.47;;;0.47;;
13439;SDS011;6792;57.698;11.946;2022-09-01T12:17:48;1.35;;;0.60;;
13439;SDS011;6792;57.698;11.946;2022-09-01T12:20:22;2.30;;;0.88;;
13439;SDS011;6792;57.698;11.946;2022-09-01T12:22:56;0.40;;;0.40;;
13439;SDS011;6792;57.698;11.946;2022-09-01T12:25:28;0.80;;;0.57;;
13439;SDS011;6792;57.698;11.946;2022-09-01T12:27:59;3.75;;;0.50;;
13439;SDS011;6792;57.698;11.946;2022-09-01T12:30:28;1.22;;;0.40;;
13439;SDS011;6792;57.698;11.946;2022-09-01T12:33:00;0.55;;;0.50;;
13439;SDS011;6792;57.698;11.946;2022-09-01T12:35:32;1.60;;;0.45;;
13439;SDS011;6792;57.698;11.946;2022-09-01T12:38:21;1.17;;;0.65;;
13439;SDS011;6792;57.698;11.946;2022-09-01T12:40:52;1.25;;;0.80;;
13439;SDS011;6792;57.698;11.946;2022-09-01T12:43:30;1.90;;;0.70;;
13439;SDS011;6792;57.698;11.946;2022-09-01T12:46:01;1.00;;;0.60;;
13439;SDS011;6792;57.698;11.946;2022-09-01T12:48:32;0.72;;;0.45;;
13439;SDS011;6792;57.698;11.946;2022-09-01T12:51:03;0.70;;;0.40;;
13439;SDS011;6792;57.698;11.946;2022-09-01T12:53:34;1.37;;;0.50;;
13439;SDS011;6792;57.698;11.946;2022-09-01T12:56:15;1.70;;;0.50;;
13439;SDS011;6792;57.698;11.946;2022-09-01T12:59:04;0.57;;;0.40;;
13439;SDS011;6792;57.698;11.946;2022-09-01T13:01:35;0.78;;;0.47;;
13439;SDS011;6792;57.698;11.946;2022-09-01T13:04:05;0.50;;;0.50;;
13439;SDS011;6792;57.698;11.946;2022-09-01T13:06:40;0.93;;;0.50;;
13439;SDS011;6792;57.698;11.946;2022-09-01T13:09:09;0.40;;;0.40;;
13439;SDS011;6792;57.698;11.946;2022-09-01T13:11:38;1.12;;;0.50;;
13439;SDS011;6792;57.698;11.946;2022-09-01T13:14:07;1.40;;;0.50;;
13439;SDS011;6792;57.698;11.946;2022-09-01T13:16:37;2.30;;;0.70;;
13439;SDS011;6792;57.698;11.946;2022-09-01T13:19:06;0.30;;;0.30;;
13439;SDS011;6792;57.698;11.946;2022-09-01T13:21:35;1.00;;;0.60;;
13439;SDS011;6792;57.698;11.946;2022-09-01T13:24:04;0.65;;;0.40;;
13439;SDS011;6792;57.698;11.946;2022-09-01T13:26:34;1.22;;;0.70;;
13439;SDS011;6792;57.698;11.946;2022-09-01T13:29:03;1.55;;;0.45;;
13439;SDS011;6792;57.698;11.946;2022-09-01T13:31:32;3.40;;;0.60;;
13439;SDS011;6792;57.698;11.946;2022-09-01T13:34:01;0.47;;;0.42;;
13439;SDS011;6792;57.698;11.946;2022-09-01T13:36:30;0.80;;;0.50;;
13439;SDS011;6792;57.698;11.946;2022-09-01T13:38:59;0.47;;;0.40;;
13439;SDS011;6792;57.698;11.946;2022-09-01T13:41:28;0.57;;;0.57;;
13439;SDS011;6792;57.698;11.946;2022-09-01T13:43:57;1.40;;;0.40;;
13439;SDS011;6792;57.698;11.946;2022-09-01T13:46:28;2.25;;;0.80;;
13439;SDS011;6792;57.698;11.946;2022-09-01T13:49:02;1.15;;;0.60;;
13439;SDS011;6792;57.698;11.946;2022-09-01T13:51:31;1.07;;;0.80;;
13439;SDS011;6792;57.698;11.946;2022-09-01T13:54:01;1.50;;;1.40;;
13439;SDS011;6792;57.698;11.946;2022-09-01T13:56:30;1.40;;;1.30;;
13439;SDS011;6792;57.698;11.946;2022-09-01T13:59:00;1.30;;;1.20;;
13439;SDS011;6792;57.698;11.946;2022-09-01T14:01:29;1.40;;;0.70;;
13439;SDS011;6792;57.698;11.946;2022-09-01T14:03:58;0.98;;;0.70;;
13439;SDS011;6792;57.698;11.946;2022-09-01T14:06:29;2.50;;;0.65;;
13439;SDS011;6792;57.698;11.946;2022-09-01T14:08:58;0.93;;;0.70;;
13439;SDS011;6792;57.698;11.946;2022-09-01T14:11:27;3.55;;;1.35;;
13439;SDS011;6792;57.698;11.946;2022-09-01T14:13:57;2.95;;;0.70;;
13439;SDS011;6792;57.698;11.946;2022-09-01T14:16:26;1.17;;;0.50;;
13439;SDS011;6792;57.698;11.946;2022-09-01T14:18:55;2.80;;;0.50;;
13439;SDS011;6792;57.698;11.946;2022-09-01T14:21:25;1.85;;;0.60;;
13439;SDS011;6792;57.698;11.946;2022-09-01T14:23:54;0.50;;;0.50;;
13439;SDS011;6792;57.698;11.946;2022-09-01T14:26:23;0.85;;;0.37;;
13439;SDS011;6792;57.698;11.946;2022-09-01T14:28:52;1.62;;;0.50;;
13439;SDS011;6792;57.698;11.946;2022-09-01T14:31:21;0.62;;;0.55;;
13439;SDS011;6792;57.698;11.946;2022-09-01T14:33:50;1.32;;;0.50;;
13439;SDS011;6792;57.698;11.946;2022-09-01T14:36:20;0.57;;;0.40;;
13439;SDS011;6792;57.698;11.946;2022-09-01T14:38:51;0.55;;;0.55;;
13439;SDS011;6792;57.698;11.946;2022-09-01T14:41:21;0.85;;;0.50;;
13439;SDS011;6792;57.698;11.946;2022-09-01T14:43:51;4.03;;;0.50;;
13439;SDS011;6792;57.698;11.946;2022-09-01T14:46:22;4.78;;;0.40;;
13439;SDS011;6792;57.698;11.946;2022-09-01T14:48:51;1.27;;;0.40;;
13439;SDS011;6792;57.698;11.946;2022-09-01T14:51:22;0.45;;;0.40;;
13439;SDS011;6792;57.698;11.946;2022-09-01T14:53:52;1.25;;;0.60;;
13439;SDS011;6792;57.698;11.946;2022-09-01T14:56:22;0.70;;;0.68;;
13439;SDS011;6792;57.698;11.946;2022-09-01T14:58:51;3.67;;;0.88;;
13439;SDS011;6792;57.698;11.946;2022-09-01T15:01:23;0.60;;;0.50;;
13439;SDS011;6792;57.698;11.946;2022-09-01T15:03:53;2.15;;;0.60;;
13439;SDS011;6792;57.698;11.946;2022-09-01T15:06:22;1.87;;;0.50;;
13439;SDS011;6792;57.698;11.946;2022-09-01T15:08:51;0.47;;;0.42;;
13439;SDS011;6792;57.698;11.946;2022-09-01T15:11:20;0.50;;;0.50;;
13439;SDS011;6792;57.698;11.946;2022-09-01T15:13:48;1.37;;;0.50;;
13439;SDS011;6792;57.698;11.946;2022-09-01T15:16:19;1.07;;;0.40;;
13439;SDS011;6792;57.698;11.946;2022-09-01T15:18:50;2.92;;;0.40;;
13439;SDS011;6792;57.698;11.946;2022-09-01T15:21:23;1.90;;;0.60;;
13439;SDS011;6792;57.698;11.946;2022-09-01T15:23:55;1.00;;;0.50;;
13439;SDS011;6792;57.698;11.946;2022-09-01T15:26:26;1.67;;;0.50;;
13439;SDS011;6792;57.698;11.946;2022-09-01T15:28:55;4.05;;;0.60;;
13439;SDS011;6792;57.698;11.946;2022-09-01T15:31:25;1.95;;;0.72;;
13439;SDS011;6792;57.698;11.946;2022-09-01T15:33:58;1.50;;;0.53;;
13439;SDS011;6792;57.698;11.946;2022-09-01T15:36:29;1.82;;;0.80;;
13439;SDS011;6792;57.698;11.946;2022-09-01T15:38:59;0.62;;;0.40;;
13439;SDS011;6792;57.698;11.946;2022-09-01T15:41:29;0.53;;;0.53;;
13439;SDS011;6792;57.698;11.946;2022-09-01T15:44:00;0.62;;;0.60;;
13439;SDS011;6792;57.698;11.946;2022-09-01T15:46:31;0.53;;;0.50;;